sensor_id;sensor_type;location;lat;lon;timestamp;P1;durP1;ratioP1;P2;durP2;ratioP2
21615;SDS011;10970;48.714;9.584;2022-09-30T00:01:19;11.13;;;6.17;;
21615;SDS011;10970;48.714;9.584;2022-09-30T00:03:46;5.50;;;5.10;;
21615;SDS011;10970;48.714;9.584;2022-09-30T00:06:13;7.80;;;6.15;;
21615;SDS011;10970;48.714;9.584;2022-09-30T00:08:39;5.20;;;4.70;;
21615;SDS011;10970;48.714;9.584;2022-09-30T00:11:10;6.37;;;5.83;;
21615;SDS011;10970;48.714;9.584;2022-09-30T00:13:41;6.65;;;6.07;;
21615;SDS011;10970;48.714;9.584;2022-09-30T00:16:09;8.73;;;5.32;;
21615;SDS011;10970;48.714;9.584;2022-09-30T00:18:36;6.45;;;5.60;;
21615;SDS011;10970;48.714;9.584;2022-09-30T00:21:02;6.43;;;5.57;;
21615;SDS011;10970;48.714;9.584;2022-09-30T00:23:28;5.95;;;5.35;;
21615;SDS011;10970;48.714;9.584;2022-09-30T00:25:58;5.20;;;4.70;;
21615;SDS011;10970;48.714;9.584;2022-09-30T00:28:25;5.10;;;4.70;;
21615;SDS011;10970;48.714;9.584;2022-09-30T00:30:51;8.07;;;6.30;;
21615;SDS011;10970;48.714;9.584;2022-09-30T00:33:17;6.53;;;5.93;;
21615;SDS011;10970;48.714;9.584;2022-09-30T00:35:43;5.30;;;4.80;;
21615;SDS011;10970;48.714;9.584;2022-09-30T00:38:08;8.17;;;5.67;;
21615;SDS011;10970;48.714;9.584;2022-09-30T00:40:36;11.30;;;6.37;;
21615;SDS011;10970;48.714;9.584;2022-09-30T00:43:02;8.70;;;5.38;;
21615;SDS011;10970;48.714;9.584;2022-09-30T00:45:29;6.70;;;6.10;;
21615;SDS011;10970;48.714;9.584;2022-09-30T00:48:02;8.52;;;5.35;;
21615;SDS011;10970;48.714;9.584;2022-09-30T00:50:46;8.35;;;5.50;;
21615;SDS011;10970;48.714;9.584;2022-09-30T00:55:53;8.70;;;5.23;;
21615;SDS011;10970;48.714;9.584;2022-09-30T00:58:27;8.15;;;6.13;;
21615;SDS011;10970;48.714;9.584;2022-09-30T01:00:54;5.85;;;5.25;;
21615;SDS011;10970;48.714;9.584;2022-09-30T01:03:20;5.47;;;4.85;;
21615;SDS011;10970;48.714;9.584;2022-09-30T01:05:47;5.72;;;5.15;;
21615;SDS011;10970;48.714;9.584;2022-09-30T01:08:13;5.20;;;4.63;;
21615;SDS011;10970;48.714;9.584;2022-09-30T01:10:42;6.63;;;5.18;;
21615;SDS011;10970;48.714;9.584;2022-09-30T01:13:08;6.45;;;5.75;;
21615;SDS011;10970;48.714;9.584;2022-09-30T01:15:38;6.07;;;4.80;;
21615;SDS011;10970;48.714;9.584;2022-09-30T01:18:20;5.88;;;5.38;;
21615;SDS011;10970;48.714;9.584;2022-09-30T01:20:59;6.03;;;5.05;;
21615;SDS011;10970;48.714;9.584;2022-09-30T01:37:22;6.35;;;5.38;;
21615;SDS011;10970;48.714;9.584;2022-09-30T01:43:09;7.22;;;4.90;;
21615;SDS011;10970;48.714;9.584;2022-09-30T01:45:48;6.18;;;5.57;;
21615;SDS011;10970;48.714;9.584;2022-09-30T01:51:09;6.72;;;5.13;;
21615;SDS011;10970;48.714;9.584;2022-09-30T01:54:04;6.97;;;4.75;;
21615;SDS011;10970;48.714;9.584;2022-09-30T01:56:45;7.28;;;4.28;;
21615;SDS011;10970;48.714;9.584;2022-09-30T02:02:05;4.50;;;4.10;;
21615;SDS011;10970;48.714;9.584;2022-09-30T02:04:36;7.65;;;5.80;;
21615;SDS011;10970;48.714;9.584;2022-09-30T02:07:09;11.02;;;5.82;;
21615;SDS011;10970;48.714;9.584;2022-09-30T02:09:42;5.18;;;3.95;;
21615;SDS011;10970;48.714;9.584;2022-09-30T02:12:17;4.85;;;4.03;;
21615;SDS011;10970;48.714;9.584;2022-09-30T02:14:48;5.00;;;4.30;;
21615;SDS011;10970;48.714;9.584;2022-09-30T02:17:22;9.23;;;6.25;;
21615;SDS011;10970;48.714;9.584;2022-09-30T02:20:17;6.53;;;5.80;;
21615;SDS011;10970;48.714;9.584;2022-09-30T02:22:51;9.85;;;7.30;;
21615;SDS011;10970;48.714;9.584;2022-09-30T02:25:50;9.30;;;7.68;;
21615;SDS011;10970;48.714;9.584;2022-09-30T02:28:31;7.88;;;6.88;;
21615;SDS011;10970;48.714;9.584;2022-09-30T02:31:03;9.38;;;7.53;;
21615;SDS011;10970;48.714;9.584;2022-09-30T02:36:09;10.50;;;8.73;;
21615;SDS011;10970;48.714;9.584;2022-09-30T02:38:53;6.20;;;5.25;;
21615;SDS011;10970;48.714;9.584;2022-09-30T02:41:25;5.47;;;4.40;;
21615;SDS011;10970;48.714;9.584;2022-09-30T02:43:55;6.32;;;3.90;;
21615;SDS011;10970;48.714;9.584;2022-09-30T02:51:34;3.75;;;3.40;;
21615;SDS011;10970;48.714;9.584;2022-09-30T02:59:22;4.97;;;4.57;;
21615;SDS011;10970;48.714;9.584;2022-09-30T03:01:49;5.03;;;3.97;;
21615;SDS011;10970;48.714;9.584;2022-09-30T03:04:16;6.67;;;4.27;;
21615;SDS011;10970;48.714;9.584;2022-09-30T03:06:46;5.63;;;5.10;;
21615;SDS011;10970;48.714;9.584;2022-09-30T03:09:12;7.73;;;5.30;;
21615;SDS011;10970;48.714;9.584;2022-09-30T03:11:37;4.57;;;4.17;;
21615;SDS011;10970;48.714;9.584;2022-09-30T03:14:15;6.47;;;5.13;;
21615;SDS011;10970;48.714;9.584;2022-09-30T03:27:40;5.40;;;3.97;;
21615;SDS011;10970;48.714;9.584;2022-09-30T03:30:13;5.93;;;5.32;;
21615;SDS011;10970;48.714;9.584;2022-09-30T03:32:51;5.47;;;4.78;;
21615;SDS011;10970;48.714;9.584;2022-09-30T03:37:55;4.90;;;4.38;;
21615;SDS011;10970;48.714;9.584;2022-09-30T03:43:42;7.10;;;5.65;;
21615;SDS011;10970;48.714;9.584;2022-09-30T03:46:40;12.15;;;7.57;;
21615;SDS011;10970;48.714;9.584;2022-09-30T03:49:09;10.10;;;6.30;;
21615;SDS011;10970;48.714;9.584;2022-09-30T03:51:38;9.38;;;7.40;;
21615;SDS011;10970;48.714;9.584;2022-09-30T03:54:05;6.65;;;5.53;;
21615;SDS011;10970;48.714;9.584;2022-09-30T03:56:36;8.43;;;5.78;;
21615;SDS011;10970;48.714;9.584;2022-09-30T03:59:21;6.20;;;5.45;;
21615;SDS011;10970;48.714;9.584;2022-09-30T04:01:49;9.27;;;6.82;;
21615;SDS011;10970;48.714;9.584;2022-09-30T04:04:16;8.25;;;7.45;;
21615;SDS011;10970;48.714;9.584;2022-09-30T04:06:42;10.05;;;8.27;;
21615;SDS011;10970;48.714;9.584;2022-09-30T04:09:07;8.47;;;7.60;;
21615;SDS011;10970;48.714;9.584;2022-09-30T04:11:33;9.07;;;8.13;;
21615;SDS011;10970;48.714;9.584;2022-09-30T04:13:59;11.50;;;8.87;;
21615;SDS011;10970;48.714;9.584;2022-09-30T04:16:27;7.97;;;7.18;;
21615;SDS011;10970;48.714;9.584;2022-09-30T04:18:53;6.95;;;6.03;;
21615;SDS011;10970;48.714;9.584;2022-09-30T04:21:20;8.45;;;6.53;;
21615;SDS011;10970;48.714;9.584;2022-09-30T04:23:47;6.95;;;5.85;;
21615;SDS011;10970;48.714;9.584;2022-09-30T04:26:13;6.75;;;6.03;;
21615;SDS011;10970;48.714;9.584;2022-09-30T04:28:40;7.60;;;6.18;;
21615;SDS011;10970;48.714;9.584;2022-09-30T04:31:07;6.57;;;5.97;;
21615;SDS011;10970;48.714;9.584;2022-09-30T04:33:35;6.38;;;5.78;;
21615;SDS011;10970;48.714;9.584;2022-09-30T04:36:01;6.55;;;5.65;;
21615;SDS011;10970;48.714;9.584;2022-09-30T04:38:28;9.00;;;7.47;;
21615;SDS011;10970;48.714;9.584;2022-09-30T04:40:55;10.55;;;7.00;;
21615;SDS011;10970;48.714;9.584;2022-09-30T04:43:21;10.50;;;7.07;;
21615;SDS011;10970;48.714;9.584;2022-09-30T04:45:48;7.72;;;6.15;;
21615;SDS011;10970;48.714;9.584;2022-09-30T04:48:16;6.10;;;5.50;;
21615;SDS011;10970;48.714;9.584;2022-09-30T04:50:42;16.52;;;6.80;;
21615;SDS011;10970;48.714;9.584;2022-09-30T04:53:08;7.07;;;6.37;;
21615;SDS011;10970;48.714;9.584;2022-09-30T04:55:36;5.80;;;5.20;;
21615;SDS011;10970;48.714;9.584;2022-09-30T04:58:02;10.37;;;6.07;;
21615;SDS011;10970;48.714;9.584;2022-09-30T05:00:28;6.87;;;5.73;;
21615;SDS011;10970;48.714;9.584;2022-09-30T05:02:54;7.85;;;5.82;;
21615;SDS011;10970;48.714;9.584;2022-09-30T05:05:20;10.43;;;7.73;;
21615;SDS011;10970;48.714;9.584;2022-09-30T05:07:45;11.50;;;8.40;;
21615;SDS011;10970;48.714;9.584;2022-09-30T05:10:11;14.07;;;10.20;;
21615;SDS011;10970;48.714;9.584;2022-09-30T05:12:37;17.40;;;10.03;;
21615;SDS011;10970;48.714;9.584;2022-09-30T05:15:05;14.07;;;10.52;;
21615;SDS011;10970;48.714;9.584;2022-09-30T05:17:31;13.93;;;10.10;;
21615;SDS011;10970;48.714;9.584;2022-09-30T05:19:57;13.93;;;9.97;;
21615;SDS011;10970;48.714;9.584;2022-09-30T05:22:23;12.15;;;9.57;;
21615;SDS011;10970;48.714;9.584;2022-09-30T05:24:50;13.02;;;9.52;;
21615;SDS011;10970;48.714;9.584;2022-09-30T05:27:16;16.73;;;9.13;;
21615;SDS011;10970;48.714;9.584;2022-09-30T05:29:43;9.75;;;7.40;;
21615;SDS011;10970;48.714;9.584;2022-09-30T05:32:09;10.93;;;8.27;;
21615;SDS011;10970;48.714;9.584;2022-09-30T05:34:35;10.93;;;8.50;;
21615;SDS011;10970;48.714;9.584;2022-09-30T05:37:03;9.13;;;8.15;;
21615;SDS011;10970;48.714;9.584;2022-09-30T05:39:29;9.57;;;7.00;;
21615;SDS011;10970;48.714;9.584;2022-09-30T05:41:55;13.23;;;10.57;;
21615;SDS011;10970;48.714;9.584;2022-09-30T05:44:22;14.05;;;9.20;;
21615;SDS011;10970;48.714;9.584;2022-09-30T05:46:48;14.47;;;10.00;;
21615;SDS011;10970;48.714;9.584;2022-09-30T05:49:13;14.77;;;11.00;;
21615;SDS011;10970;48.714;9.584;2022-09-30T05:51:39;11.57;;;10.33;;
21615;SDS011;10970;48.714;9.584;2022-09-30T05:54:04;8.03;;;7.33;;
21615;SDS011;10970;48.714;9.584;2022-09-30T05:56:30;9.33;;;7.40;;
21615;SDS011;10970;48.714;9.584;2022-09-30T05:58:58;7.53;;;6.82;;
21615;SDS011;10970;48.714;9.584;2022-09-30T06:01:24;9.10;;;6.85;;
21615;SDS011;10970;48.714;9.584;2022-09-30T06:03:50;7.63;;;6.47;;
21615;SDS011;10970;48.714;9.584;2022-09-30T06:06:16;9.87;;;6.73;;
21615;SDS011;10970;48.714;9.584;2022-09-30T06:08:43;7.43;;;6.25;;
21615;SDS011;10970;48.714;9.584;2022-09-30T06:11:12;10.70;;;7.97;;
21615;SDS011;10970;48.714;9.584;2022-09-30T06:13:41;8.20;;;6.97;;
21615;SDS011;10970;48.714;9.584;2022-09-30T06:16:08;10.85;;;8.00;;
21615;SDS011;10970;48.714;9.584;2022-09-30T06:18:35;9.90;;;8.32;;
21615;SDS011;10970;48.714;9.584;2022-09-30T06:21:05;9.65;;;6.50;;
21615;SDS011;10970;48.714;9.584;2022-09-30T06:23:32;11.85;;;7.05;;
21615;SDS011;10970;48.714;9.584;2022-09-30T06:26:03;8.60;;;7.43;;
21615;SDS011;10970;48.714;9.584;2022-09-30T06:28:30;9.20;;;7.03;;
21615;SDS011;10970;48.714;9.584;2022-09-30T06:31:00;9.60;;;8.18;;
21615;SDS011;10970;48.714;9.584;2022-09-30T06:33:26;9.60;;;8.75;;
21615;SDS011;10970;48.714;9.584;2022-09-30T06:35:52;17.00;;;8.70;;
21615;SDS011;10970;48.714;9.584;2022-09-30T06:38:18;10.40;;;8.83;;
21615;SDS011;10970;48.714;9.584;2022-09-30T06:40:45;8.65;;;7.72;;
21615;SDS011;10970;48.714;9.584;2022-09-30T06:43:14;16.27;;;10.98;;
21615;SDS011;10970;48.714;9.584;2022-09-30T06:45:40;8.38;;;7.55;;
21615;SDS011;10970;48.714;9.584;2022-09-30T06:48:06;14.60;;;8.93;;
21615;SDS011;10970;48.714;9.584;2022-09-30T06:50:33;8.95;;;8.05;;
21615;SDS011;10970;48.714;9.584;2022-09-30T06:52:59;8.80;;;7.90;;
21615;SDS011;10970;48.714;9.584;2022-09-30T06:55:27;10.85;;;7.38;;
21615;SDS011;10970;48.714;9.584;2022-09-30T06:57:54;8.80;;;6.97;;
21615;SDS011;10970;48.714;9.584;2022-09-30T07:00:20;8.38;;;7.68;;
21615;SDS011;10970;48.714;9.584;2022-09-30T07:02:47;8.43;;;7.32;;
21615;SDS011;10970;48.714;9.584;2022-09-30T07:05:13;8.57;;;7.50;;
21615;SDS011;10970;48.714;9.584;2022-09-30T07:07:39;7.63;;;6.80;;
21615;SDS011;10970;48.714;9.584;2022-09-30T07:10:06;8.27;;;7.07;;
21615;SDS011;10970;48.714;9.584;2022-09-30T07:12:32;7.50;;;6.80;;
21615;SDS011;10970;48.714;9.584;2022-09-30T07:14:58;10.27;;;7.00;;
21615;SDS011;10970;48.714;9.584;2022-09-30T07:17:25;10.45;;;8.07;;
21615;SDS011;10970;48.714;9.584;2022-09-30T07:19:51;9.27;;;7.47;;
21615;SDS011;10970;48.714;9.584;2022-09-30T07:22:17;11.63;;;7.70;;
21615;SDS011;10970;48.714;9.584;2022-09-30T07:24:54;10.15;;;8.45;;
21615;SDS011;10970;48.714;9.584;2022-09-30T07:27:21;11.77;;;7.25;;
21615;SDS011;10970;48.714;9.584;2022-09-30T07:29:47;8.88;;;7.65;;
21615;SDS011;10970;48.714;9.584;2022-09-30T07:32:13;9.33;;;7.80;;
21615;SDS011;10970;48.714;9.584;2022-09-30T07:34:40;8.75;;;7.95;;
21615;SDS011;10970;48.714;9.584;2022-09-30T07:37:09;10.35;;;7.03;;
21615;SDS011;10970;48.714;9.584;2022-09-30T07:39:36;8.75;;;7.65;;
21615;SDS011;10970;48.714;9.584;2022-09-30T07:42:02;13.00;;;8.70;;
21615;SDS011;10970;48.714;9.584;2022-09-30T07:44:29;8.32;;;7.50;;
21615;SDS011;10970;48.714;9.584;2022-09-30T07:46:56;10.60;;;8.05;;
21615;SDS011;10970;48.714;9.584;2022-09-30T07:49:22;9.07;;;6.75;;
21615;SDS011;10970;48.714;9.584;2022-09-30T07:51:49;7.93;;;7.18;;
21615;SDS011;10970;48.714;9.584;2022-09-30T07:54:24;9.60;;;8.05;;
21615;SDS011;10970;48.714;9.584;2022-09-30T07:56:51;11.10;;;8.15;;
21615;SDS011;10970;48.714;9.584;2022-09-30T07:59:17;8.77;;;7.40;;
21615;SDS011;10970;48.714;9.584;2022-09-30T08:01:44;7.60;;;6.85;;
21615;SDS011;10970;48.714;9.584;2022-09-30T08:04:10;11.30;;;7.25;;
21615;SDS011;10970;48.714;9.584;2022-09-30T08:06:39;9.95;;;7.32;;
21615;SDS011;10970;48.714;9.584;2022-09-30T08:09:13;8.30;;;7.50;;
21615;SDS011;10970;48.714;9.584;2022-09-30T08:11:41;8.73;;;7.40;;
21615;SDS011;10970;48.714;9.584;2022-09-30T08:14:07;10.20;;;7.70;;
21615;SDS011;10970;48.714;9.584;2022-09-30T08:16:37;8.93;;;7.97;;
21615;SDS011;10970;48.714;9.584;2022-09-30T08:19:02;9.80;;;8.80;;
21615;SDS011;10970;48.714;9.584;2022-09-30T08:21:29;9.27;;;8.32;;
21615;SDS011;10970;48.714;9.584;2022-09-30T08:23:55;11.38;;;7.75;;
21615;SDS011;10970;48.714;9.584;2022-09-30T08:26:21;9.27;;;7.75;;
21615;SDS011;10970;48.714;9.584;2022-09-30T08:28:47;9.10;;;8.23;;
21615;SDS011;10970;48.714;9.584;2022-09-30T08:31:14;8.33;;;7.10;;
21615;SDS011;10970;48.714;9.584;2022-09-30T08:33:43;9.95;;;7.93;;
21615;SDS011;10970;48.714;9.584;2022-09-30T08:36:09;8.23;;;7.20;;
21615;SDS011;10970;48.714;9.584;2022-09-30T08:38:37;10.23;;;9.20;;
21615;SDS011;10970;48.714;9.584;2022-09-30T08:43:49;8.68;;;7.57;;
21615;SDS011;10970;48.714;9.584;2022-09-30T08:46:34;10.53;;;6.90;;
21615;SDS011;10970;48.714;9.584;2022-09-30T08:52:14;8.93;;;7.17;;
21615;SDS011;10970;48.714;9.584;2022-09-30T08:54:47;10.83;;;7.20;;
21615;SDS011;10970;48.714;9.584;2022-09-30T08:57:16;8.13;;;7.33;;
21615;SDS011;10970;48.714;9.584;2022-09-30T09:02:17;9.07;;;8.20;;
21615;SDS011;10970;48.714;9.584;2022-09-30T09:04:48;10.07;;;9.07;;
21615;SDS011;10970;48.714;9.584;2022-09-30T09:10:26;8.50;;;7.03;;
21615;SDS011;10970;48.714;9.584;2022-09-30T09:13:00;9.93;;;6.93;;
21615;SDS011;10970;48.714;9.584;2022-09-30T09:20:59;7.43;;;6.73;;
21615;SDS011;10970;48.714;9.584;2022-09-30T09:23:38;7.83;;;7.00;;
21615;SDS011;10970;48.714;9.584;2022-09-30T09:26:05;8.63;;;7.83;;
21615;SDS011;10970;48.714;9.584;2022-09-30T09:28:39;12.60;;;8.00;;
21615;SDS011;10970;48.714;9.584;2022-09-30T09:31:13;7.43;;;6.70;;
21615;SDS011;10970;48.714;9.584;2022-09-30T09:33:41;7.47;;;6.70;;
21615;SDS011;10970;48.714;9.584;2022-09-30T09:47:08;8.30;;;7.40;;
21615;SDS011;10970;48.714;9.584;2022-09-30T09:49:43;9.03;;;8.10;;
21615;SDS011;10970;48.714;9.584;2022-09-30T09:54:58;8.67;;;7.80;;
21615;SDS011;10970;48.714;9.584;2022-09-30T09:57:25;9.00;;;7.23;;
21615;SDS011;10970;48.714;9.584;2022-09-30T10:00:04;8.33;;;7.30;;
21615;SDS011;10970;48.714;9.584;2022-09-30T10:03:24;8.50;;;7.60;;
21615;SDS011;10970;48.714;9.584;2022-09-30T10:05:57;9.50;;;7.63;;
21615;SDS011;10970;48.714;9.584;2022-09-30T10:08:33;9.83;;;7.90;;
21615;SDS011;10970;48.714;9.584;2022-09-30T10:11:04;8.00;;;6.90;;
21615;SDS011;10970;48.714;9.584;2022-09-30T10:13:32;9.20;;;8.30;;
21615;SDS011;10970;48.714;9.584;2022-09-30T10:16:08;7.03;;;6.33;;
21615;SDS011;10970;48.714;9.584;2022-09-30T10:18:50;8.43;;;7.63;;
21615;SDS011;10970;48.714;9.584;2022-09-30T10:21:25;7.80;;;6.10;;
21615;SDS011;10970;48.714;9.584;2022-09-30T10:23:52;8.57;;;7.77;;
21615;SDS011;10970;48.714;9.584;2022-09-30T10:26:19;7.10;;;6.40;;
21615;SDS011;10970;48.714;9.584;2022-09-30T10:28:49;7.17;;;6.57;;
21615;SDS011;10970;48.714;9.584;2022-09-30T10:31:23;7.20;;;6.53;;
21615;SDS011;10970;48.714;9.584;2022-09-30T10:33:59;9.30;;;6.33;;
21615;SDS011;10970;48.714;9.584;2022-09-30T10:36:32;9.00;;;6.40;;
21615;SDS011;10970;48.714;9.584;2022-09-30T10:39:07;6.43;;;5.57;;
21615;SDS011;10970;48.714;9.584;2022-09-30T10:41:43;5.40;;;4.90;;
21615;SDS011;10970;48.714;9.584;2022-09-30T10:44:13;6.90;;;5.57;;
21615;SDS011;10970;48.714;9.584;2022-09-30T10:46:42;6.93;;;6.33;;
21615;SDS011;10970;48.714;9.584;2022-09-30T10:49:30;6.50;;;5.90;;
21615;SDS011;10970;48.714;9.584;2022-09-30T10:52:04;4.40;;;4.00;;
21615;SDS011;10970;48.714;9.584;2022-09-30T10:57:04;7.50;;;4.43;;
21615;SDS011;10970;48.714;9.584;2022-09-30T10:59:38;5.37;;;4.20;;
21615;SDS011;10970;48.714;9.584;2022-09-30T11:11:13;3.07;;;2.77;;
21615;SDS011;10970;48.714;9.584;2022-09-30T11:13:18;3.13;;;2.60;;
21615;SDS011;10970;48.714;9.584;2022-09-30T11:26:42;2.77;;;2.47;;
21615;SDS011;10970;48.714;9.584;2022-09-30T11:32:22;3.53;;;1.63;;
21615;SDS011;10970;48.714;9.584;2022-09-30T11:40:25;2.50;;;1.20;;
21615;SDS011;10970;48.714;9.584;2022-09-30T11:59:02;2.80;;;1.57;;
21615;SDS011;10970;48.714;9.584;2022-09-30T12:06:43;4.43;;;2.10;;
21615;SDS011;10970;48.714;9.584;2022-09-30T12:09:45;3.30;;;1.60;;
21615;SDS011;10970;48.714;9.584;2022-09-30T12:12:15;1.63;;;1.53;;
21615;SDS011;10970;48.714;9.584;2022-09-30T12:20:28;2.20;;;1.90;;
21615;SDS011;10970;48.714;9.584;2022-09-30T12:25:56;3.47;;;2.30;;
21615;SDS011;10970;48.714;9.584;2022-09-30T12:34:18;1.97;;;1.67;;
21615;SDS011;10970;48.714;9.584;2022-09-30T12:47:51;0.80;;;0.80;;
21615;SDS011;10970;48.714;9.584;2022-09-30T12:50:32;7.20;;;1.47;;
21615;SDS011;10970;48.714;9.584;2022-09-30T12:53:10;0.97;;;0.90;;
21615;SDS011;10970;48.714;9.584;2022-09-30T12:55:42;1.13;;;1.10;;
21615;SDS011;10970;48.714;9.584;2022-09-30T12:58:29;1.70;;;1.10;;
21615;SDS011;10970;48.714;9.584;2022-09-30T13:01:17;1.50;;;0.93;;
21615;SDS011;10970;48.714;9.584;2022-09-30T13:03:51;1.10;;;1.00;;
21615;SDS011;10970;48.714;9.584;2022-09-30T13:14:37;2.00;;;1.20;;
21615;SDS011;10970;48.714;9.584;2022-09-30T13:29:58;1.50;;;1.40;;
21615;SDS011;10970;48.714;9.584;2022-09-30T13:32:36;1.57;;;1.10;;
21615;SDS011;10970;48.714;9.584;2022-09-30T13:35:24;1.47;;;1.17;;
21615;SDS011;10970;48.714;9.584;2022-09-30T13:43:25;1.13;;;1.07;;
21615;SDS011;10970;48.714;9.584;2022-09-30T13:46:03;1.60;;;1.33;;
21615;SDS011;10970;48.714;9.584;2022-09-30T13:48:35;1.40;;;1.30;;
21615;SDS011;10970;48.714;9.584;2022-09-30T13:51:07;2.10;;;0.80;;
21615;SDS011;10970;48.714;9.584;2022-09-30T13:53:39;1.80;;;1.17;;
21615;SDS011;10970;48.714;9.584;2022-09-30T14:06:39;1.10;;;1.10;;
21615;SDS011;10970;48.714;9.584;2022-09-30T14:11:58;1.67;;;1.07;;
21615;SDS011;10970;48.714;9.584;2022-09-30T14:20:11;1.10;;;1.00;;
21615;SDS011;10970;48.714;9.584;2022-09-30T14:23:13;2.63;;;2.13;;
21615;SDS011;10970;48.714;9.584;2022-09-30T14:25:41;1.80;;;1.60;;
21615;SDS011;10970;48.714;9.584;2022-09-30T14:31:17;1.27;;;1.17;;
21615;SDS011;10970;48.714;9.584;2022-09-30T14:33:45;1.70;;;1.20;;
21615;SDS011;10970;48.714;9.584;2022-09-30T14:36:15;2.70;;;1.03;;
21615;SDS011;10970;48.714;9.584;2022-09-30T14:38:47;2.77;;;2.17;;
21615;SDS011;10970;48.714;9.584;2022-09-30T14:41:21;3.00;;;1.50;;
21615;SDS011;10970;48.714;9.584;2022-09-30T14:43:48;1.03;;;0.97;;
21615;SDS011;10970;48.714;9.584;2022-09-30T14:46:31;2.53;;;1.00;;
21615;SDS011;10970;48.714;9.584;2022-09-30T14:49:05;1.93;;;1.30;;
21615;SDS011;10970;48.714;9.584;2022-09-30T14:51:37;1.57;;;1.00;;
21615;SDS011;10970;48.714;9.584;2022-09-30T14:54:17;2.30;;;1.50;;
21615;SDS011;10970;48.714;9.584;2022-09-30T14:56:48;2.10;;;1.00;;
21615;SDS011;10970;48.714;9.584;2022-09-30T15:01:45;2.10;;;1.33;;
21615;SDS011;10970;48.714;9.584;2022-09-30T15:04:16;1.50;;;1.40;;
21615;SDS011;10970;48.714;9.584;2022-09-30T15:06:45;0.80;;;0.80;;
21615;SDS011;10970;48.714;9.584;2022-09-30T15:11:41;11.27;;;3.40;;
21615;SDS011;10970;48.714;9.584;2022-09-30T15:14:17;1.57;;;1.47;;
21615;SDS011;10970;48.714;9.584;2022-09-30T15:19:21;1.70;;;1.60;;
21615;SDS011;10970;48.714;9.584;2022-09-30T15:21:52;1.30;;;1.20;;
21615;SDS011;10970;48.714;9.584;2022-09-30T15:24:20;0.90;;;0.90;;
21615;SDS011;10970;48.714;9.584;2022-09-30T15:26:48;3.57;;;1.13;;
21615;SDS011;10970;48.714;9.584;2022-09-30T15:29:15;2.30;;;2.03;;
21615;SDS011;10970;48.714;9.584;2022-09-30T15:31:43;2.03;;;1.93;;
21615;SDS011;10970;48.714;9.584;2022-09-30T15:34:17;1.77;;;1.67;;
21615;SDS011;10970;48.714;9.584;2022-09-30T15:36:46;1.27;;;1.17;;
21615;SDS011;10970;48.714;9.584;2022-09-30T15:39:20;2.00;;;1.50;;
21615;SDS011;10970;48.714;9.584;2022-09-30T15:42:13;1.67;;;1.43;;
21615;SDS011;10970;48.714;9.584;2022-09-30T15:44:52;1.40;;;1.30;;
21615;SDS011;10970;48.714;9.584;2022-09-30T15:47:18;4.50;;;2.67;;
21615;SDS011;10970;48.714;9.584;2022-09-30T15:49:45;3.07;;;2.60;;
21615;SDS011;10970;48.714;9.584;2022-09-30T15:55:00;2.03;;;1.70;;
21615;SDS011;10970;48.714;9.584;2022-09-30T15:57:46;3.53;;;2.67;;
21615;SDS011;10970;48.714;9.584;2022-09-30T16:00:32;3.03;;;2.30;;
21615;SDS011;10970;48.714;9.584;2022-09-30T16:06:10;2.30;;;1.67;;
21615;SDS011;10970;48.714;9.584;2022-09-30T16:08:42;1.93;;;1.73;;
21615;SDS011;10970;48.714;9.584;2022-09-30T16:11:16;2.17;;;1.97;;
21615;SDS011;10970;48.714;9.584;2022-09-30T16:13:49;1.80;;;1.70;;
21615;SDS011;10970;48.714;9.584;2022-09-30T16:16:17;4.43;;;3.17;;
21615;SDS011;10970;48.714;9.584;2022-09-30T16:18:45;3.97;;;3.33;;
21615;SDS011;10970;48.714;9.584;2022-09-30T16:21:26;2.57;;;2.30;;
21615;SDS011;10970;48.714;9.584;2022-09-30T16:23:56;3.60;;;2.90;;
21615;SDS011;10970;48.714;9.584;2022-09-30T16:26:26;4.83;;;3.10;;
21615;SDS011;10970;48.714;9.584;2022-09-30T16:28:53;4.87;;;2.57;;
21615;SDS011;10970;48.714;9.584;2022-09-30T16:31:20;4.07;;;2.87;;
21615;SDS011;10970;48.714;9.584;2022-09-30T16:33:47;2.63;;;2.10;;
21615;SDS011;10970;48.714;9.584;2022-09-30T16:36:13;5.03;;;4.53;;
21615;SDS011;10970;48.714;9.584;2022-09-30T16:38:39;5.37;;;4.97;;
21615;SDS011;10970;48.714;9.584;2022-09-30T16:41:08;9.93;;;7.17;;
21615;SDS011;10970;48.714;9.584;2022-09-30T16:43:36;3.90;;;3.33;;
21615;SDS011;10970;48.714;9.584;2022-09-30T16:46:03;2.53;;;2.17;;
21615;SDS011;10970;48.714;9.584;2022-09-30T16:48:29;2.20;;;1.93;;
21615;SDS011;10970;48.714;9.584;2022-09-30T16:53:41;4.10;;;2.70;;
21615;SDS011;10970;48.714;9.584;2022-09-30T16:56:13;3.03;;;2.73;;
21615;SDS011;10970;48.714;9.584;2022-09-30T16:58:40;2.27;;;2.17;;
21615;SDS011;10970;48.714;9.584;2022-09-30T17:04:02;5.97;;;4.00;;
21615;SDS011;10970;48.714;9.584;2022-09-30T17:06:28;1.90;;;1.80;;
21615;SDS011;10970;48.714;9.584;2022-09-30T17:08:55;2.73;;;2.53;;
21615;SDS011;10970;48.714;9.584;2022-09-30T17:11:23;2.70;;;2.50;;
21615;SDS011;10970;48.714;9.584;2022-09-30T17:13:55;5.00;;;4.50;;
21615;SDS011;10970;48.714;9.584;2022-09-30T17:16:21;4.20;;;3.40;;
21615;SDS011;10970;48.714;9.584;2022-09-30T17:18:47;10.50;;;9.20;;
21615;SDS011;10970;48.714;9.584;2022-09-30T17:21:31;10.27;;;7.20;;
21615;SDS011;10970;48.714;9.584;2022-09-30T17:23:57;3.77;;;3.00;;
21615;SDS011;10970;48.714;9.584;2022-09-30T17:26:23;5.67;;;4.20;;
21615;SDS011;10970;48.714;9.584;2022-09-30T17:28:48;3.53;;;2.77;;
21615;SDS011;10970;48.714;9.584;2022-09-30T17:31:14;2.87;;;2.67;;
21615;SDS011;10970;48.714;9.584;2022-09-30T17:33:40;5.30;;;3.27;;
21615;SDS011;10970;48.714;9.584;2022-09-30T17:36:06;3.00;;;2.80;;
21615;SDS011;10970;48.714;9.584;2022-09-30T17:38:36;3.20;;;2.90;;
21615;SDS011;10970;48.714;9.584;2022-09-30T17:41:03;5.30;;;3.40;;
21615;SDS011;10970;48.714;9.584;2022-09-30T17:43:48;3.50;;;3.20;;
21615;SDS011;10970;48.714;9.584;2022-09-30T17:46:14;3.47;;;2.40;;
21615;SDS011;10970;48.714;9.584;2022-09-30T17:48:46;4.00;;;3.60;;
21615;SDS011;10970;48.714;9.584;2022-09-30T17:51:13;4.77;;;4.00;;
21615;SDS011;10970;48.714;9.584;2022-09-30T17:53:40;7.43;;;4.67;;
21615;SDS011;10970;48.714;9.584;2022-09-30T17:56:10;7.30;;;5.03;;
21615;SDS011;10970;48.714;9.584;2022-09-30T17:58:43;5.80;;;4.57;;
21615;SDS011;10970;48.714;9.584;2022-09-30T18:01:11;4.93;;;4.43;;
21615;SDS011;10970;48.714;9.584;2022-09-30T18:03:37;6.87;;;4.97;;
21615;SDS011;10970;48.714;9.584;2022-09-30T18:06:03;6.13;;;4.83;;
21615;SDS011;10970;48.714;9.584;2022-09-30T18:08:29;5.97;;;5.30;;
21615;SDS011;10970;48.714;9.584;2022-09-30T18:10:55;5.40;;;5.00;;
21615;SDS011;10970;48.714;9.584;2022-09-30T18:13:22;5.00;;;4.50;;
21615;SDS011;10970;48.714;9.584;2022-09-30T18:15:48;6.73;;;5.10;;
21615;SDS011;10970;48.714;9.584;2022-09-30T18:18:14;7.17;;;5.50;;
21615;SDS011;10970;48.714;9.584;2022-09-30T18:20:47;6.00;;;5.33;;
21615;SDS011;10970;48.714;9.584;2022-09-30T18:23:15;6.07;;;5.50;;
21615;SDS011;10970;48.714;9.584;2022-09-30T18:25:43;5.90;;;5.15;;
21615;SDS011;10970;48.714;9.584;2022-09-30T18:28:09;6.22;;;5.18;;
21615;SDS011;10970;48.714;9.584;2022-09-30T18:30:37;6.63;;;5.90;;
21615;SDS011;10970;48.714;9.584;2022-09-30T18:33:03;6.57;;;5.97;;
21615;SDS011;10970;48.714;9.584;2022-09-30T18:35:31;6.80;;;6.20;;
21615;SDS011;10970;48.714;9.584;2022-09-30T18:37:58;7.40;;;5.33;;
21615;SDS011;10970;48.714;9.584;2022-09-30T18:40:24;10.13;;;6.77;;
21615;SDS011;10970;48.714;9.584;2022-09-30T18:42:54;11.20;;;8.10;;
21615;SDS011;10970;48.714;9.584;2022-09-30T18:45:26;10.02;;;7.55;;
21615;SDS011;10970;48.714;9.584;2022-09-30T18:47:58;11.02;;;8.57;;
21615;SDS011;10970;48.714;9.584;2022-09-30T18:50:25;15.23;;;7.07;;
21615;SDS011;10970;48.714;9.584;2022-09-30T18:52:52;9.50;;;8.50;;
21615;SDS011;10970;48.714;9.584;2022-09-30T18:55:19;13.30;;;8.33;;